Time;durP1;ratioP1;P1;durP2;ratioP2;P2;SDS_P1;SDS_P2;PMS_P1;PMS_P2;Temp;Humidity;BMP_temperature;BMP_pressure;BME280_temperature;BME280_humidity;BME280_pressure;Samples;Min_cycle;Max_cycle;Signal;HPM_P1;HPM_P2
2021/09/06 00:02:09;;;;;;;;;16.00;16.00;;;;;23.47;54.12;101769.09;5041875;28;45265;-87
2021/09/06 00:04:37;;;;;;;;;18.33;15.33;;;;;23.39;53.90;101762.97;5035877;28;47227;-87
2021/09/06 00:07:02;;;;;;;;;17.67;16.67;;;;;23.44;54.16;101767.31;5040373;28;44820;-87
2021/09/06 00:09:29;;;;;;;;;14.00;14.00;;;;;23.29;53.70;101746.19;5035321;28;44747;-89
2021/09/06 00:11:54;;;;;;;;;14.33;14.33;;;;;23.39;53.76;101771.03;5040213;28;44699;-89
2021/09/06 00:14:20;;;;;;;;;15.33;14.00;;;;;23.34;53.53;101757.69;5025034;28;47056;-89
2021/09/06 00:16:45;;;;;;;;;17.00;13.67;;;;;23.34;54.01;101758.59;5040800;28;45360;-87
2021/09/06 00:19:11;;;;;;;;;14.67;13.67;;;;;23.28;54.10;101749.78;5043011;28;44829;-87
2021/09/06 00:21:36;;;;;;;;;18.67;17.67;;;;;23.34;53.99;101766.63;5043551;28;44783;-88
2021/09/06 00:24:02;;;;;;;;;12.33;11.67;;;;;23.31;54.06;101763.13;5041574;28;46988;-89
2021/09/06 00:26:28;;;;;;;;;17.33;14.67;;;;;23.23;53.69;101752.53;5041453;28;44722;-88
2021/09/06 00:28:54;;;;;;;;;16.33;16.33;;;;;23.20;53.60;101747.25;5040273;28;44837;-89
2021/09/06 00:31:19;;;;;;;;;18.00;15.67;;;;;23.19;54.25;101749.03;5042152;28;44668;-87
2021/09/06 00:33:45;;;;;;;;;18.00;14.33;;;;;23.23;54.25;101761.47;5041165;28;47138;-89
2021/09/06 00:36:10;;;;;;;;;12.33;12.00;;;;;23.23;53.79;101764.16;5041126;28;45194;-89
2021/09/06 00:38:36;;;;;;;;;13.33;13.33;;;;;23.13;53.65;101751.84;5039345;28;44636;-87
2021/09/06 00:41:04;;;;;;;;;14.00;13.00;;;;;23.19;53.67;101757.09;5038076;28;45277;-88
2021/09/06 00:43:29;;;;;;;;;15.33;15.00;;;;;23.14;53.53;101757.16;5019493;28;47128;-89
2021/09/06 00:45:58;;;;;;;;;17.00;16.67;;;;;23.17;53.75;101763.38;5036906;28;44693;-90
2021/09/06 00:48:26;;;;;;;;;17.33;14.33;;;;;23.10;53.82;101751.88;5034396;28;45298;-88
2021/09/06 00:50:53;;;;;;;;;14.00;13.33;;;;;23.03;53.32;101748.47;5026061;28;45347;-88
2021/09/06 00:53:19;;;;;;;;;14.00;14.00;;;;;23.13;53.85;101773.28;5024732;28;45325;-88
2021/09/06 00:55:44;;;;;;;;;16.33;14.33;;;;;23.11;53.51;101769.75;5024114;28;45367;-88
2021/09/06 00:58:10;;;;;;;;;16.33;15.00;;;;;23.03;53.13;101759.19;5025549;28;45304;-89
2021/09/06 01:00:36;;;;;;;;;16.67;16.67;;;;;23.11;53.07;101776.00;5022485;28;45294;-89
2021/09/06 01:03:02;;;;;;;;;13.33;13.00;;;;;23.07;53.43;101768.06;5022868;28;45998;-88
2021/09/06 01:05:28;;;;;;;;;17.67;15.33;;;;;23.08;53.25;101777.84;5022980;28;45189;-90
2021/09/06 01:07:53;;;;;;;;;15.33;14.33;;;;;23.01;53.20;101766.38;5025019;28;45330;-88
2021/09/06 01:10:19;;;;;;;;;14.67;12.00;;;;;23.06;53.26;101779.66;5026671;28;45223;-89
2021/09/06 01:12:44;;;;;;;;;16.00;13.67;;;;;23.02;53.40;101773.50;5029066;28;45522;-90
2021/09/06 01:15:11;;;;;;;;;15.00;13.67;;;;;22.93;53.24;101757.59;5008769;28;45803;-90
2021/09/06 01:17:37;;;;;;;;;14.67;13.00;;;;;22.89;53.26;101754.94;5026500;28;45257;-90
2021/09/06 01:20:04;;;;;;;;;13.00;13.00;;;;;22.98;53.20;101772.66;5021398;28;45628;-89
2021/09/06 01:22:30;;;;;;;;;13.33;13.33;;;;;22.96;53.84;101766.47;5016001;28;48375;-89
2021/09/06 01:24:55;;;;;;;;;15.33;15.33;;;;;22.88;53.54;101758.56;5019302;28;45419;-90
2021/09/06 01:27:20;;;;;;;;;15.00;14.00;;;;;22.90;53.67;101759.41;5025888;28;45458;-90
2021/09/06 01:29:46;;;;;;;;;14.67;14.00;;;;;22.93;53.54;101765.63;5027261;28;44792;-91
2021/09/06 01:32:11;;;;;;;;;16.33;16.33;;;;;22.92;53.19;101764.75;5024158;28;46430;-90
2021/09/06 01:34:38;;;;;;;;;14.33;14.33;;;;;22.77;53.12;101742.66;5017352;28;45344;-91
2021/09/06 01:37:04;;;;;;;;;14.00;14.00;;;;;22.77;53.77;101756.06;5017409;28;45344;-90
2021/09/06 01:39:29;;;;;;;;;18.67;15.00;;;;;22.79;53.32;101758.72;5021766;28;45342;-91
2021/09/06 01:41:55;;;;;;;;;12.67;12.67;;;;;22.82;53.43;101761.34;5019626;28;47260;-90
2021/09/06 01:44:21;;;;;;;;;16.67;14.00;;;;;22.73;53.39;101754.34;5002318;28;45674;-90
2021/09/06 01:46:47;;;;;;;;;15.00;12.33;;;;;22.75;53.41;101763.25;5021237;28;45325;-91
2021/09/06 01:49:12;;;;;;;;;14.00;14.00;;;;;22.75;53.21;101765.03;5018977;28;45479;-91
2021/09/06 01:51:38;;;;;;;;;15.00;15.00;;;;;22.84;53.19;101788.13;5019356;28;47951;-90
2021/09/06 01:54:04;;;;;;;;;13.33;13.33;;;;;22.76;53.18;101773.03;5026568;28;45568;-88
2021/09/06 01:56:29;;;;;;;;;14.67;13.67;;;;;22.75;53.44;101779.34;5021589;28;45273;-91
2021/09/06 01:58:54;;;;;;;;;15.00;15.00;;;;;22.67;53.55;101768.72;5017348;28;45390;-91
2021/09/06 02:01:20;;;;;;;;;14.00;14.00;;;;;22.73;52.90;101781.16;5023608;28;46096;-90
2021/09/06 02:03:45;;;;;;;;;19.00;16.00;;;;;22.63;53.43;101763.44;5020251;28;45456;-88
2021/09/06 02:06:11;;;;;;;;;14.67;13.00;;;;;22.70;53.30;101783.88;5018632;28;45430;-92
2021/09/06 02:08:36;;;;;;;;;15.33;14.33;;;;;22.73;53.67;101786.50;5016912;28;45450;-90
2021/09/06 02:11:02;;;;;;;;;15.00;15.00;;;;;22.68;53.62;101772.28;5017706;28;45682;-91
2021/09/06 02:13:28;;;;;;;;;16.67;13.67;;;;;22.58;53.46;101759.94;5015994;28;45368;-90
2021/09/06 02:15:54;;;;;;;;;15.67;14.67;;;;;22.63;53.34;101769.66;5016057;28;45314;-92
2021/09/06 02:18:19;;;;;;;;;15.33;14.67;;;;;22.61;53.31;101766.13;5017010;28;45233;-91
2021/09/06 02:20:44;;;;;;;;;15.33;15.33;;;;;22.65;53.83;101775.00;5017187;28;45936;-90
2021/09/06 02:23:10;;;;;;;;;15.00;14.67;;;;;22.63;53.57;101779.50;5018635;28;45155;-90
2021/09/06 02:25:35;;;;;;;;;15.33;14.00;;;;;22.54;53.50;101757.31;5018995;28;45263;-91
2021/09/06 02:28:01;;;;;;;;;15.00;14.67;;;;;22.56;53.55;101766.22;5023359;28;45349;-92
2021/09/06 02:30:26;;;;;;;;;15.67;14.67;;;;;22.64;53.39;101791.97;5034789;28;46891;-89
2021/09/06 02:32:52;;;;;;;;;17.33;14.33;;;;;22.59;53.36;101783.16;5040372;28;45411;-89
2021/09/06 02:35:17;;;;;;;;;15.67;15.33;;;;;22.53;53.59;101774.28;5039433;28;44870;-89
2021/09/06 02:37:43;;;;;;;;;17.67;16.33;;;;;22.52;53.93;101775.22;5019671;28;45526;-90
2021/09/06 02:40:09;;;;;;;;;16.33;16.00;;;;;22.60;53.60;101796.53;5028714;28;45312;-90
2021/09/06 02:42:35;;;;;;;;;19.33;16.00;;;;;22.54;53.79;101780.53;5022789;28;45352;-90
2021/09/06 02:45:00;;;;;;;;;14.67;14.33;;;;;22.45;53.70;101760.13;5021136;28;45339;-90
2021/09/06 02:47:28;;;;;;;;;17.67;15.33;;;;;22.54;53.99;101786.78;5023161;28;45345;-91
2021/09/06 02:49:55;;;;;;;;;13.33;13.33;;;;;22.56;53.83;101795.69;5019888;28;45317;-91
2021/09/06 02:52:21;;;;;;;;;15.33;14.00;;;;;22.44;53.70;101774.47;5019613;28;45482;-90
2021/09/06 02:54:46;;;;;;;;;14.67;14.00;;;;;22.48;53.98;101786.91;5017996;28;45500;-90
2021/09/06 02:57:11;;;;;;;;;15.33;14.33;;;;;22.44;53.82;101790.53;5018710;28;45490;-91
2021/09/06 02:59:37;;;;;;;;;15.67;15.33;;;;;22.51;53.89;101804.69;5001984;28;48249;-91
2021/09/06 03:02:03;;;;;;;;;17.67;15.67;;;;;22.44;53.64;101796.75;5018172;28;45713;-91
2021/09/06 03:04:29;;;;;;;;;15.33;12.33;;;;;22.36;53.63;101776.38;5018226;28;45431;-90
2021/09/06 03:06:54;;;;;;;;;15.33;14.33;;;;;22.46;53.94;101799.44;5019060;28;45449;-91
2021/09/06 03:09:19;;;;;;;;;15.67;14.00;;;;;22.39;53.89;101795.06;5017643;28;47825;-91
2021/09/06 03:11:45;;;;;;;;;19.33;16.33;;;;;22.39;54.06;101790.59;5001273;28;45376;-90
2021/09/06 03:14:10;;;;;;;;;18.33;17.00;;;;;22.36;53.99;101784.41;5019686;28;45249;-88
2021/09/06 03:16:36;;;;;;;;;16.00;16.00;;;;;22.37;53.82;101789.75;5020289;28;45435;-90
2021/09/06 03:19:01;;;;;;;;;19.00;17.33;;;;;22.35;53.89;101793.34;5018585;28;47085;-91
2021/09/06 03:21:26;;;;;;;;;20.00;19.00;;;;;22.24;54.16;101772.97;5020756;28;45332;-91
2021/09/06 03:23:54;;;;;;;;;19.67;19.67;;;;;22.38;54.60;101796.84;5019325;28;45556;-91
2021/09/06 03:26:19;;;;;;;;;18.67;15.33;;;;;22.30;54.15;101788.03;5027011;28;45305;-91
2021/09/06 03:28:45;;;;;;;;;18.00;17.33;;;;;22.35;54.69;101796.91;5012400;28;48408;-91
2021/09/06 03:31:10;;;;;;;;;18.67;18.67;;;;;22.29;54.51;101780.94;5022974;28;45431;-89
2021/09/06 03:33:36;;;;;;;;;18.00;17.33;;;;;22.15;54.81;101763.28;5020380;28;45340;-91
2021/09/06 03:36:03;;;;;;;;;18.67;18.67;;;;;22.15;55.09;101765.94;5019109;28;45422;-89
2021/09/06 03:38:28;;;;;;;;;19.00;19.00;;;;;22.20;55.08;101785.53;5021294;28;46307;-90
2021/09/06 03:40:54;;;;;;;;;20.67;18.33;;;;;22.24;55.07;101789.03;5019368;28;45413;-90
2021/09/06 03:43:19;;;;;;;;;21.67;18.67;;;;;22.16;55.20;101778.44;5009581;28;45670;-91
2021/09/06 03:45:44;;;;;;;;;21.33;20.00;;;;;22.19;55.01;101778.38;5010292;28;45463;-90
2021/09/06 03:48:10;;;;;;;;;19.67;17.67;;;;;22.22;55.02;101788.16;5001766;28;47053;-91
2021/09/06 03:50:35;;;;;;;;;22.25;18.75;;;;;22.23;55.07;101797.97;5018949;28;45314;-91
2021/09/06 03:53:01;;;;;;;;;17.33;15.00;;;;;22.14;55.20;101779.38;5018700;28;45434;-91
2021/09/06 03:55:26;;;;;;;;;16.33;15.00;;;;;22.13;55.48;101783.81;5025720;28;45340;-90
2021/09/06 03:57:52;;;;;;;;;23.00;20.00;;;;;22.07;55.05;101778.56;5029127;28;45411;-89
2021/09/06 04:00:17;;;;;;;;;19.33;19.00;;;;;22.08;55.14;101772.31;5008721;28;45321;-91
2021/09/06 04:02:43;;;;;;;;;22.00;18.00;;;;;22.01;55.49;101768.84;5025580;28;45304;-90
2021/09/06 04:05:09;;;;;;;;;19.33;18.67;;;;;22.07;55.28;101779.47;5025111;28;45397;-89
2021/09/06 04:07:34;;;;;;;;;19.50;17.50;;;;;22.12;55.50;101789.22;5024195;28;47235;-89
2021/09/06 04:10:00;;;;;;;;;18.00;18.00;;;;;22.01;55.11;101774.19;5027106;28;45356;-90
2021/09/06 04:12:25;;;;;;;;;20.67;18.00;;;;;22.05;55.28;101789.31;5035425;28;45492;-88
2021/09/06 04:14:51;;;;;;;;;20.00;17.33;;;;;22.02;55.20;101778.63;5036379;28;45230;-89
2021/09/06 04:17:17;;;;;;;;;21.33;18.67;;;;;22.09;55.29;101791.03;5035756;28;45678;-90
2021/09/06 04:19:43;;;;;;;;;22.33;19.67;;;;;22.02;55.20;101783.97;5036164;28;44730;-87
2021/09/06 04:22:08;;;;;;;;;20.00;19.00;;;;;22.00;55.31;101784.94;5044992;28;44879;-90
2021/09/06 04:24:33;;;;;;;;;17.33;17.33;;;;;21.97;55.54;101783.16;5045971;28;44847;-88
2021/09/06 04:26:59;;;;;;;;;16.33;13.33;;;;;22.04;55.28;101792.00;5042548;28;45413;-90
2021/09/06 04:29:25;;;;;;;;;20.00;17.67;;;;;21.96;55.63;101784.97;5044337;28;44722;-88
2021/09/06 04:31:51;;;;;;;;;18.33;18.33;;;;;21.92;55.66;101782.34;5045397;28;44843;-90
2021/09/06 04:34:17;;;;;;;;;19.00;17.33;;;;;21.92;55.54;101788.59;5044385;28;44855;-87
2021/09/06 04:36:42;;;;;;;;;22.33;20.67;;;;;21.97;55.72;101794.78;5046687;28;46491;-89
2021/09/06 04:39:07;;;;;;;;;17.00;16.33;;;;;21.96;55.93;101802.81;5045861;28;45364;-88
2021/09/06 04:41:33;;;;;;;;;20.00;20.00;;;;;21.95;55.90;101809.06;5043665;28;44779;-89
2021/09/06 04:43:59;;;;;;;;;16.00;13.67;;;;;21.95;55.61;101811.75;5038009;28;44756;-91
2021/09/06 04:46:25;;;;;;;;;20.67;17.00;;;;;21.92;55.84;101815.34;5031134;28;45662;-90
2021/09/06 04:48:50;;;;;;;;;18.33;17.67;;;;;21.88;55.82;101815.41;5019488;28;45983;-90
2021/09/06 04:51:16;;;;;;;;;17.67;17.00;;;;;21.91;55.99;101824.31;5013510;28;45313;-91
2021/09/06 04:53:42;;;;;;;;;20.33;17.33;;;;;21.86;55.89;101810.97;5012697;28;45505;-91
2021/09/06 04:56:10;;;;;;;;;19.00;18.33;;;;;21.89;56.07;101827.91;5021661;28;47914;-90
2021/09/06 04:58:36;;;;;;;;;22.00;17.67;;;;;21.85;56.15;101819.88;5020618;28;45267;-91
2021/09/06 05:01:01;;;;;;;;;16.00;15.33;;;;;21.80;55.96;101824.41;5039111;28;45461;-91
2021/09/06 05:03:27;;;;;;;;;19.33;18.33;;;;;21.83;55.89;101827.06;5039247;28;45308;-91
2021/09/06 05:05:55;;;;;;;;;18.33;17.33;;;;;21.75;55.95;101815.53;5038269;28;45919;-88
2021/09/06 05:08:20;;;;;;;;;19.67;19.67;;;;;21.69;55.79;101807.56;5038215;28;45256;-90
2021/09/06 05:10:46;;;;;;;;;20.00;17.00;;;;;21.83;55.99;101831.47;5020022;28;45317;-89
2021/09/06 05:13:12;;;;;;;;;19.67;17.00;;;;;21.74;56.18;101829.81;5037396;28;45473;-87
2021/09/06 05:15:37;;;;;;;;;22.67;18.33;;;;;21.72;55.99;101812.91;5036004;28;45603;-88
2021/09/06 05:18:03;;;;;;;;;19.67;17.67;;;;;21.78;55.96;101834.25;5036964;28;45328;-87
2021/09/06 05:20:28;;;;;;;;;19.00;18.00;;;;;21.73;56.43;101833.38;5036985;28;45407;-87
2021/09/06 05:22:54;;;;;;;;;21.33;16.33;;;;;21.78;56.56;101844.94;5037260;28;45404;-88
2021/09/06 05:25:19;;;;;;;;;18.67;17.67;;;;;21.75;56.56;101839.63;5037859;28;46058;-88
2021/09/06 05:27:44;;;;;;;;;22.33;18.33;;;;;21.81;56.59;101858.28;5037157;28;45479;-88
2021/09/06 05:30:10;;;;;;;;;19.33;19.00;;;;;21.75;56.43;101850.31;5037053;28;45265;-87
2021/09/06 05:32:36;;;;;;;;;16.33;16.33;;;;;21.74;56.24;101846.75;5018771;28;45270;-88
2021/09/06 05:35:01;;;;;;;;;20.33;17.67;;;;;21.70;56.72;101841.47;5036553;28;46347;-87
2021/09/06 05:37:27;;;;;;;;;18.33;18.00;;;;;21.79;56.64;101856.50;5018582;28;45386;-88
2021/09/06 05:39:52;;;;;;;;;19.00;18.33;;;;;21.69;56.48;101853.97;5037114;28;45314;-88
2021/09/06 05:42:17;;;;;;;;;19.33;17.67;;;;;21.76;56.51;101870.84;5037498;28;45313;-87
2021/09/06 05:44:43;;;;;;;;;16.33;16.33;;;;;21.66;56.18;101859.31;5037018;28;45293;-87
2021/09/06 05:47:08;;;;;;;;;20.00;19.33;;;;;21.80;56.53;101885.06;5037322;28;45213;-89
2021/09/06 05:49:34;;;;;;;;;18.00;18.00;;;;;21.80;56.62;101885.06;5019683;28;45158;-87
2021/09/06 05:52:00;;;;;;;;;20.00;17.67;;;;;21.66;56.57;101861.16;5037249;28;45288;-87
2021/09/06 05:54:25;;;;;;;;;20.33;17.00;;;;;21.75;56.64;101882.44;5018142;28;46419;-87
2021/09/06 05:56:51;;;;;;;;;19.67;19.33;;;;;21.75;56.62;101882.44;5036589;28;45262;-87
2021/09/06 05:59:16;;;;;;;;;20.67;15.67;;;;;21.82;56.45;101896.63;5036753;28;45419;-85
2021/09/06 06:01:42;;;;;;;;;22.67;18.33;;;;;21.82;56.19;101902.88;5021954;28;45336;-87
2021/09/06 06:04:08;;;;;;;;;21.67;19.00;;;;;21.72;56.45;101882.47;5021675;28;48228;-87
2021/09/06 06:06:33;;;;;;;;;21.67;19.00;;;;;21.76;56.19;101892.25;5039601;28;45422;-86
2021/09/06 06:08:58;;;;;;;;;23.67;20.67;;;;;21.82;56.23;101900.19;5039698;28;45748;-87
2021/09/06 06:11:24;;;;;;;;;22.33;19.00;;;;;21.80;56.80;101901.13;5039942;28;45494;-86
2021/09/06 06:13:49;;;;;;;;;20.33;19.00;;;;;21.76;56.41;101894.91;5039347;28;45457;-86
2021/09/06 06:16:15;;;;;;;;;19.00;18.00;;;;;21.75;56.76;101898.47;5039231;28;45388;-87
2021/09/06 06:18:40;;;;;;;;;22.33;19.00;;;;;21.76;56.97;101897.59;5039542;28;45372;-87
2021/09/06 06:21:06;;;;;;;;;19.67;17.67;;;;;21.74;56.80;101899.41;5021978;28;45368;-85
2021/09/06 06:23:31;;;;;;;;;19.67;19.33;;;;;21.84;56.95;101917.16;5039252;28;46183;-85
2021/09/06 06:25:56;;;;;;;;;45.25;30.25;;;;;21.84;57.11;101909.13;5021136;28;45509;-83
2021/09/06 06:28:22;;;;;;;;;21.33;18.67;;;;;21.84;57.25;101919.84;5021816;28;45336;-83
2021/09/06 06:30:47;;;;;;;;;20.67;19.67;;;;;21.83;56.91;101915.38;5041790;28;45370;-87
2021/09/06 06:33:13;;;;;;;;;19.33;18.00;;;;;21.84;58.14;101916.28;5040334;28;45581;-88
2021/09/06 06:35:38;;;;;;;;;19.33;19.33;;;;;21.83;57.57;101915.38;5040249;28;45228;-88
2021/09/06 06:38:05;;;;;;;;;19.67;17.33;;;;;21.75;57.19;101909.19;5021878;28;45397;-88
2021/09/06 06:40:31;;;;;;;;;20.67;18.33;;;;;21.77;57.96;101911.84;5039563;28;45454;-87
2021/09/06 06:42:57;;;;;;;;;19.00;18.00;;;;;21.74;57.42;101907.44;5023188;28;48330;-89
2021/09/06 06:45:22;;;;;;;;;21.33;20.00;;;;;21.84;57.36;101922.50;5023740;28;45360;-88
2021/09/06 06:47:47;;;;;;;;;20.67;18.00;;;;;21.81;57.63;101914.47;5022074;28;45697;-88
2021/09/06 06:50:13;;;;;;;;;21.67;19.00;;;;;21.80;57.89;101918.06;5040417;28;45373;-88
2021/09/06 06:52:39;;;;;;;;;22.67;19.67;;;;;21.81;57.74;101918.94;5039630;28;45399;-88
2021/09/06 06:55:05;;;;;;;;;21.00;19.33;;;;;21.82;57.74;101920.72;5039759;28;45322;-88
2021/09/06 06:57:31;;;;;;;;;20.33;20.33;;;;;21.71;58.06;101903.00;5042731;28;45300;-88
2021/09/06 06:59:56;;;;;;;;;23.67;19.33;;;;;21.80;57.82;101911.81;5049181;28;45316;-87
2021/09/06 07:02:22;;;;;;;;;23.33;22.00;;;;;21.85;57.78;101931.41;5050361;28;45414;-89
2021/09/06 07:04:47;;;;;;;;;20.33;17.33;;;;;21.82;57.84;101916.25;5029807;28;45396;-87
2021/09/06 07:07:13;;;;;;;;;22.33;18.00;;;;;21.75;57.78;101910.09;5051848;28;45400;-89
2021/09/06 07:09:38;;;;;;;;;27.67;22.33;;;;;21.77;58.13;101904.69;5040899;28;45261;-89
2021/09/06 07:12:06;;;;;;;;;21.00;19.00;;;;;21.76;57.96;101902.94;5028204;28;47205;-89
2021/09/06 07:14:32;;;;;;;;;20.33;16.33;;;;;21.85;57.75;101926.06;5054052;28;44767;-89
2021/09/06 07:16:57;;;;;;;;;23.00;21.00;;;;;21.80;57.85;101911.81;5033443;28;45323;-88
2021/09/06 07:19:22;;;;;;;;;22.00;22.00;;;;;21.95;58.01;101940.25;5047215;28;45218;-89
2021/09/06 07:21:48;;;;;;;;;23.00;19.00;;;;;21.96;58.40;101945.56;5039721;28;46118;-89
2021/09/06 07:24:13;;;;;;;;;24.33;21.33;;;;;21.93;57.90;101934.91;5021054;28;45436;-89
2021/09/06 07:26:39;;;;;;;;;22.25;21.50;;;;;21.99;58.12;101944.66;5039126;28;45422;-90
2021/09/06 07:29:04;;;;;;;;;25.33;20.33;;;;;22.00;58.11;101943.75;5021021;28;45321;-89
2021/09/06 07:31:30;;;;;;;;;24.33;20.33;;;;;21.89;58.62;101927.81;5020626;28;47238;-89
2021/09/06 07:33:55;;;;;;;;;21.33;18.67;;;;;21.90;57.88;101928.69;5021110;28;45269;-89
2021/09/06 07:36:21;;;;;;;;;22.33;22.00;;;;;21.96;58.22;101933.97;5038923;28;45412;-89
2021/09/06 07:38:46;;;;;;;;;22.00;19.33;;;;;22.08;58.92;101949.88;5039163;28;45378;-90
2021/09/06 07:41:12;;;;;;;;;21.33;18.00;;;;;22.03;58.97;101948.19;5038804;28;45451;-89
2021/09/06 07:43:37;;;;;;;;;19.33;19.33;;;;;21.97;58.63;101935.75;5038567;28;45331;-90
2021/09/06 07:46:03;;;;;;;;;25.67;21.33;;;;;22.11;58.13;101951.66;5039025;28;45427;-89
2021/09/06 07:48:28;;;;;;;;;23.33;20.00;;;;;22.07;58.13;101942.78;5038774;28;45343;-89
2021/09/06 07:50:53;;;;;;;;;18.67;16.33;;;;;22.06;58.48;101941.00;5038328;28;46459;-89
2021/09/06 07:53:22;;;;;;;;;20.67;18.33;;;;;22.15;58.69;101955.16;5038270;28;45437;-89
2021/09/06 07:55:47;;;;;;;;;19.67;17.00;;;;;22.18;58.14;101955.16;5046156;28;45320;-89
2021/09/06 07:58:13;;;;;;;;;19.00;18.33;;;;;22.08;59.05;101936.50;5043062;28;45036;-89
2021/09/06 08:00:38;;;;;;;;;17.67;16.33;;;;;22.17;58.20;101953.34;5063008;28;45406;-89
2021/09/06 08:03:04;;;;;;;;;19.00;17.33;;;;;22.21;57.96;101949.75;5045564;28;44786;-89
2021/09/06 08:05:29;;;;;;;;;22.33;19.00;;;;;22.18;58.34;101948.00;5061428;28;44799;-89
2021/09/06 08:07:55;;;;;;;;;18.67;18.00;;;;;22.20;58.29;101950.66;5062903;28;44721;-88
2021/09/06 08:10:24;;;;;;;;;17.67;16.00;;;;;22.23;58.58;101949.75;5064223;28;45498;-89
2021/09/06 08:12:49;;;;;;;;;17.33;16.00;;;;;22.26;58.14;101958.63;5058641;28;45163;-89
2021/09/06 08:15:15;;;;;;;;;21.00;19.00;;;;;22.28;57.96;101958.59;5041915;28;45422;-88
2021/09/06 08:17:41;;;;;;;;;23.33;20.67;;;;;22.39;57.89;101967.41;5041140;28;45351;-89
2021/09/06 08:20:12;;;;;;;;;25.33;20.67;;;;;22.47;58.08;101986.03;5039252;28;45758;-89
2021/09/06 08:22:39;;;;;;;;;20.33;19.00;;;;;22.42;58.60;101980.72;5039391;28;45247;-90
2021/09/06 08:25:07;;;;;;;;;19.33;17.33;;;;;22.35;58.51;101954.94;5042749;28;45390;-89
2021/09/06 08:27:32;;;;;;;;;21.33;18.33;;;;;22.48;58.38;101982.47;5046628;28;45391;-89
2021/09/06 08:29:58;;;;;;;;;20.33;17.67;;;;;22.40;58.87;101960.25;5044494;28;45207;-89
2021/09/06 08:32:24;;;;;;;;;23.33;19.67;;;;;22.48;59.16;101968.19;5027625;28;45442;-90
2021/09/06 08:34:49;;;;;;;;;21.00;18.00;;;;;22.53;58.84;101977.03;5035920;28;45236;-89
2021/09/06 08:37:24;;;;;;;;;20.00;17.00;;;;;22.56;59.64;101974.31;5055273;28;44825;-88
2021/09/06 08:39:50;;;;;;;;;19.33;19.00;;;;;22.52;59.76;101965.44;5044937;28;45499;-89
2021/09/06 08:42:15;;;;;;;;;20.33;18.00;;;;;22.64;59.84;101980.47;5037861;28;45315;-89
2021/09/06 08:44:42;;;;;;;;;15.33;15.33;;;;;22.69;59.05;101983.13;5019464;28;45431;-89
2021/09/06 08:47:08;;;;;;;;;15.33;14.67;;;;;22.70;59.46;101979.50;5020309;28;45362;-89
2021/09/06 08:49:34;;;;;;;;;23.00;18.33;;;;;22.63;58.83;101959.06;5019532;28;47344;-89
2021/09/06 08:51:59;;;;;;;;;18.33;18.33;;;;;22.76;58.70;101975.88;5020278;28;46004;-89
2021/09/06 08:54:25;;;;;;;;;15.00;15.00;;;;;22.76;59.29;101968.72;5019674;28;45271;-89
2021/09/06 08:56:50;;;;;;;;;21.00;17.67;;;;;22.80;59.62;101972.25;5038561;28;45502;-89
2021/09/06 08:59:20;;;;;;;;;16.67;16.00;;;;;22.90;59.14;101991.75;5020544;28;47278;-88
2021/09/06 09:01:50;;;;;;;;;17.33;16.33;;;;;22.95;58.70;101983.66;5020016;28;45897;-89
2021/09/06 09:04:24;;;;;;;;;18.67;16.00;;;;;22.98;58.38;101973.75;5019529;28;45485;-89
2021/09/06 09:06:53;;;;;;;;;21.00;17.00;;;;;23.09;57.76;101973.59;5020081;28;45519;-89
2021/09/06 09:09:37;;;;;;;;;14.33;13.33;;;;;23.39;57.40;101988.34;5037434;28;46090;-89
2021/09/06 09:12:07;;;;;;;;;13.33;12.00;;;;;23.65;56.59;101984.34;5037650;28;45470;-88
2021/09/06 09:14:35;;;;;;;;;18.67;17.33;;;;;23.93;57.16;101982.03;5041519;28;45372;-89
2021/09/06 09:17:01;;;;;;;;;16.00;15.00;;;;;24.23;56.66;101969.84;5055526;28;45810;-89
2021/09/06 09:19:27;;;;;;;;;18.67;14.00;;;;;24.50;56.13;101962.13;5055144;28;46299;-89
2021/09/06 09:21:57;;;;;;;;;17.67;15.00;;;;;24.93;55.63;101976.41;5039563;28;45422;-88
2021/09/06 09:24:23;;;;;;;;;13.00;13.00;;;;;25.29;54.90;101975.56;5038572;28;45421;-88
2021/09/06 09:26:59;;;;;;;;;16.00;14.67;;;;;25.63;53.48;101971.13;5037757;28;45549;-88
2021/09/06 09:29:26;;;;;;;;;17.67;15.00;;;;;26.00;52.45;101973.72;5038088;28;46608;-87
2021/09/06 09:31:53;;;;;;;;;20.67;19.00;;;;;26.33;52.77;101978.22;5038260;28;45436;-88
2021/09/06 09:34:20;;;;;;;;;14.33;13.33;;;;;26.60;51.45;101970.25;5037792;28;45309;-88
2021/09/06 09:36:46;;;;;;;;;17.33;16.00;;;;;26.93;49.66;101980.88;5041376;28;45379;-88
2021/09/06 09:39:16;;;;;;;;;13.67;11.33;;;;;27.30;49.62;101991.44;5041523;28;45407;-88
2021/09/06 09:41:44;;;;;;;;;13.67;13.67;;;;;27.62;47.74;101989.41;5040663;28;45313;-88
2021/09/06 09:44:21;;;;;;;;;19.33;16.33;;;;;27.92;48.49;101985.72;5040900;28;45512;-87
2021/09/06 09:46:57;;;;;;;;;16.67;15.00;;;;;28.21;47.97;101985.59;5041254;28;45353;-87
2021/09/06 09:49:24;;;;;;;;;16.67;16.67;;;;;28.55;46.83;101987.03;5041121;28;45661;-88
2021/09/06 09:51:50;;;;;;;;;19.00;17.33;;;;;28.85;47.21;101982.28;5040286;28;45307;-88
2021/09/06 09:54:16;;;;;;;;;18.00;16.67;;;;;29.16;45.73;101980.13;5040558;28;45379;-87
2021/09/06 09:56:43;;;;;;;;;15.67;15.33;;;;;29.45;45.65;101978.00;5040686;28;45244;-87
2021/09/06 09:59:09;;;;;;;;;14.33;13.33;;;;;29.72;45.01;101969.63;5040077;28;46506;-87
2021/09/06 10:01:39;;;;;;;;;14.00;14.00;;;;;29.94;44.22;101971.38;5041150;28;45502;-88
2021/09/06 10:04:07;;;;;;;;;14.00;13.00;;;;;30.28;41.97;101974.41;5022361;28;45179;-88
2021/09/06 10:06:34;;;;;;;;;15.33;14.00;;;;;30.52;42.19;101985.03;5040927;28;45218;-87
2021/09/06 10:08:59;;;;;;;;;16.00;12.67;;;;;30.77;42.66;101978.41;5040035;28;45424;-87
2021/09/06 10:11:39;;;;;;;;;15.67;13.67;;;;;30.97;42.60;101976.56;5039926;28;45438;-87
2021/09/06 10:14:12;;;;;;;;;15.00;15.00;;;;;31.22;42.00;101985.31;5040162;28;45385;-87
2021/09/06 10:16:38;;;;;;;;;17.33;17.00;;;;;31.44;41.40;101995.94;5040549;28;45463;-87
2021/09/06 10:19:08;;;;;;;;;20.00;17.00;;;;;31.59;41.04;101974.38;5039693;28;46283;-88
2021/09/06 10:21:48;;;;;;;;;12.33;12.00;;;;;31.86;39.36;101987.47;5040072;28;45418;-87
2021/09/06 10:24:15;;;;;;;;;16.33;14.00;;;;;31.95;39.41;101954.34;5040302;28;45280;-87
2021/09/06 10:26:41;;;;;;;;;19.00;17.00;;;;;32.27;39.60;101980.75;5040599;28;45257;-87
2021/09/06 10:29:17;;;;;;;;;20.33;18.00;;;;;32.54;39.86;101969.28;5040257;28;46344;-88
2021/09/06 10:31:42;;;;;;;;;19.67;18.00;;;;;32.98;38.26;101971.34;5039643;28;45581;-88
2021/09/06 10:34:08;;;;;;;;;17.67;16.00;;;;;33.63;38.66;101970.19;5021607;28;45641;-87
2021/09/06 10:36:34;;;;;;;;;16.00;16.00;;;;;34.44;38.00;101963.41;5039961;28;45844;-88
2021/09/06 10:39:09;;;;;;;;;13.00;11.00;;;;;35.19;35.08;101974.88;5039839;28;46116;-87
2021/09/06 10:41:45;;;;;;;;;15.00;15.00;;;;;35.84;35.22;101970.47;5021492;28;45360;-86
2021/09/06 10:44:11;;;;;;;;;14.00;14.00;;;;;36.47;33.94;101980.56;5039397;28;45912;-88
2021/09/06 10:46:37;;;;;;;;;17.00;14.33;;;;;37.04;33.28;101967.19;5020041;28;45395;-87
2021/09/06 10:49:05;;;;;;;;;16.33;15.33;;;;;37.63;33.20;101978.19;5039358;28;46605;-87
2021/09/06 10:51:33;;;;;;;;;14.00;14.00;;;;;38.12;32.57;101977.13;5021056;28;45856;-86
2021/09/06 10:54:02;;;;;;;;;13.67;12.00;;;;;38.49;31.28;101953.13;5038743;28;45526;-87
2021/09/06 10:56:30;;;;;;;;;15.33;14.67;;;;;38.94;30.72;101965.00;5040260;28;45431;-87
2021/09/06 10:58:57;;;;;;;;;14.67;14.67;;;;;39.36;30.23;101964.16;5040281;28;46195;-87
2021/09/06 11:01:23;;;;;;;;;15.00;15.00;;;;;39.63;28.89;101959.09;5040009;28;45336;-87
2021/09/06 11:03:51;;;;;;;;;17.33;16.00;;;;;40.01;28.35;101965.81;5041900;28;45389;-87
2021/09/06 11:06:19;;;;;;;;;11.33;10.33;;;;;40.35;28.68;101970.13;5040703;28;45260;-86